createdAt,value
2017-08-11T00:00:42.341Z,982.4
2017-08-11T00:01:44.794Z,982.3
2017-08-11T00:02:47.193Z,982.3
2017-08-11T00:03:49.621Z,982.3
2017-08-11T00:04:52.019Z,982.2
2017-08-11T00:05:54.396Z,982.2
2017-08-11T00:06:57.066Z,982.2
2017-08-11T00:07:59.439Z,982.2
2017-08-11T00:09:01.816Z,982.3
2017-08-11T00:10:04.189Z,982.3
2017-08-11T00:11:06.655Z,982.2
2017-08-11T00:12:09.012Z,982.2
2017-08-11T00:13:11.379Z,982.2
2017-08-11T00:14:13.823Z,982.2
2017-08-11T00:15:16.204Z,982.2
2017-08-11T00:16:19.350Z,982.2
2017-08-11T00:17:21.699Z,982.2
2017-08-11T00:18:24.053Z,982.1
2017-08-11T00:19:26.425Z,982.1
2017-08-11T00:20:31.822Z,982.1
2017-08-11T00:21:34.194Z,982
2017-08-11T00:22:36.556Z,982.1
2017-08-11T00:23:38.937Z,982
2017-08-11T00:24:41.275Z,982
2017-08-11T00:25:43.653Z,982
2017-08-11T00:26:45.963Z,981.9
2017-08-11T00:27:48.329Z,981.8
2017-08-11T00:28:50.680Z,981.8
2017-08-11T00:29:53.026Z,981.8
2017-08-11T00:30:55.396Z,981.8
2017-08-11T00:31:57.760Z,981.7
2017-08-11T00:33:00.117Z,981.7
2017-08-11T00:34:02.471Z,981.7
2017-08-11T00:35:04.789Z,981.7
2017-08-11T00:36:07.252Z,981.7
2017-08-11T00:37:09.609Z,981.7
2017-08-11T00:38:12.014Z,981.7
2017-08-11T00:39:14.376Z,981.6
2017-08-11T00:40:16.891Z,981.6
2017-08-11T00:41:19.272Z,981.6
2017-08-11T00:42:21.609Z,981.6
2017-08-11T00:43:23.937Z,981.5
2017-08-11T00:44:26.258Z,981.5
2017-08-11T00:45:28.654Z,981.6
2017-08-11T00:46:31.014Z,981.6
2017-08-11T00:47:33.363Z,981.5
2017-08-11T00:48:35.783Z,981.5
2017-08-11T00:49:38.223Z,981.5
2017-08-11T00:50:40.575Z,981.5
2017-08-11T00:51:42.923Z,981.5
2017-08-11T00:52:45.286Z,981.4
2017-08-11T00:53:47.650Z,981.4
2017-08-11T00:54:49.990Z,981.4
2017-08-11T00:55:52.383Z,981.3
2017-08-11T00:56:54.725Z,981.3
2017-08-11T00:57:57.133Z,981.3
2017-08-11T00:58:59.480Z,981.3
2017-08-11T01:00:01.846Z,981.3
2017-08-11T01:01:04.203Z,981.3
2017-08-11T01:02:06.808Z,981.3
2017-08-11T01:03:09.144Z,981.3
2017-08-11T01:04:11.506Z,981.3
2017-08-11T01:05:13.856Z,981.3
2017-08-11T01:06:16.172Z,981.3
2017-08-11T01:07:18.587Z,981.3
2017-08-11T01:08:20.954Z,981.3
2017-08-11T01:09:23.337Z,981.3
2017-08-11T01:10:25.672Z,981.3
2017-08-11T01:11:28.034Z,981.3
2017-08-11T01:12:30.578Z,981.3
2017-08-11T01:13:32.930Z,981.3
2017-08-11T01:14:35.256Z,981.3
2017-08-11T01:15:37.664Z,981.3
2017-08-11T01:16:39.974Z,981.3
2017-08-11T01:17:42.325Z,981.3
2017-08-11T01:18:44.914Z,981.2
2017-08-11T01:19:47.287Z,981.2
2017-08-11T01:20:49.620Z,981.3
2017-08-11T01:21:51.954Z,981.2
2017-08-11T01:22:54.366Z,981.2
2017-08-11T01:23:56.782Z,981.2
2017-08-11T01:24:59.146Z,981.2
2017-08-11T01:26:01.488Z,981.2
2017-08-11T01:27:03.837Z,981.2
2017-08-11T01:28:06.179Z,981.2
2017-08-11T01:29:08.541Z,981.1
2017-08-11T01:30:11.157Z,981.1
2017-08-11T01:31:13.528Z,981.1
2017-08-11T01:32:15.849Z,981.1
2017-08-11T01:33:18.365Z,981.1
2017-08-11T01:34:20.658Z,981.1
2017-08-11T01:35:23.003Z,981.1
2017-08-11T01:36:25.322Z,981.1
2017-08-11T01:37:27.849Z,981.1
2017-08-11T01:38:30.192Z,981
2017-08-11T01:39:32.579Z,981
2017-08-11T01:40:34.973Z,980.9
2017-08-11T01:41:37.335Z,980.9
2017-08-11T01:42:39.674Z,980.9
2017-08-11T01:43:42.002Z,980.9
2017-08-11T01:44:44.390Z,980.8
2017-08-11T01:45:46.807Z,980.9
2017-08-11T01:46:49.212Z,980.8
2017-08-11T01:47:51.540Z,980.8
2017-08-11T01:48:53.903Z,980.9
2017-08-11T01:49:56.244Z,980.8
2017-08-11T01:50:58.709Z,980.7
2017-08-11T01:52:01.062Z,980.8
2017-08-11T01:53:03.438Z,980.8
2017-08-11T01:54:05.812Z,980.8
2017-08-11T01:55:08.222Z,980.8
2017-08-11T01:56:10.876Z,980.8
2017-08-11T01:57:13.234Z,980.8
2017-08-11T01:58:15.605Z,980.8
2017-08-11T01:59:17.946Z,980.7
2017-08-11T02:00:20.279Z,980.8
2017-08-11T02:01:23.159Z,980.3
2017-08-11T02:02:25.564Z,980.8
2017-08-11T02:03:27.920Z,980.8
2017-08-11T02:04:30.278Z,980.8
2017-08-11T02:05:32.660Z,980.8
2017-08-11T02:06:35.074Z,980.8
2017-08-11T02:07:37.431Z,980.8
2017-08-11T02:08:39.744Z,980.7
2017-08-11T02:09:42.081Z,980.8
2017-08-11T02:10:44.446Z,980.8
2017-08-11T02:11:46.864Z,980.8
2017-08-11T02:12:49.834Z,980.8
2017-08-11T02:13:52.159Z,980.8
2017-08-11T02:14:54.472Z,980.7
2017-08-11T02:15:56.858Z,980.8
2017-08-11T02:16:59.230Z,980.8
2017-08-11T02:18:01.831Z,980.7
2017-08-11T02:19:04.206Z,980.7
2017-08-11T02:20:07.186Z,980.8
2017-08-11T02:21:09.576Z,980.8
2017-08-11T02:22:11.940Z,980.7
2017-08-11T02:23:14.257Z,980.8
2017-08-11T02:24:16.597Z,980.8
2017-08-11T02:25:18.937Z,980.8
2017-08-11T02:26:21.821Z,980.7
2017-08-11T02:27:24.185Z,980.8
2017-08-11T02:28:26.566Z,980.7
2017-08-11T02:29:29.290Z,980.8
2017-08-11T02:30:31.656Z,980.7
2017-08-11T02:31:33.972Z,980.8
2017-08-11T02:32:36.322Z,980.7
2017-08-11T02:33:38.662Z,980.8
2017-08-11T02:34:41.000Z,980.7
2017-08-11T02:35:43.394Z,980.7
2017-08-11T02:36:45.724Z,980.7
2017-08-11T02:37:49.022Z,980.7
2017-08-11T02:38:51.346Z,980.7
2017-08-11T02:39:53.666Z,980.7
2017-08-11T02:40:56.024Z,980.6
2017-08-11T02:41:58.499Z,980.6
2017-08-11T02:43:00.845Z,980.2
2017-08-11T02:44:03.208Z,980.6
2017-08-11T02:45:05.538Z,980.7
2017-08-11T02:46:07.925Z,980.6
2017-08-11T02:47:10.269Z,980.7
2017-08-11T02:48:12.619Z,980.7
2017-08-11T02:49:15.154Z,980.7
2017-08-11T02:50:17.494Z,980.6
2017-08-11T02:51:20.066Z,980.3
2017-08-11T02:52:22.462Z,980.7
2017-08-11T02:53:24.926Z,980.7
2017-08-11T02:54:27.305Z,980.7
2017-08-11T02:55:29.647Z,980.7
2017-08-11T02:56:31.992Z,980.7
2017-08-11T02:57:34.340Z,980.6
2017-08-11T02:58:36.709Z,980.7
2017-08-11T02:59:39.078Z,980.7
2017-08-11T03:00:41.437Z,980.7
2017-08-11T03:01:43.776Z,980.7
2017-08-11T03:02:46.159Z,980.7
2017-08-11T03:03:48.538Z,980.6
2017-08-11T03:04:50.889Z,980.6
2017-08-11T03:05:53.200Z,980.7
2017-08-11T03:06:57.501Z,980.6
2017-08-11T03:07:59.814Z,980.7
2017-08-11T03:09:02.248Z,980.7
2017-08-11T03:10:04.637Z,980.7
2017-08-11T03:11:06.974Z,980.6
2017-08-11T03:12:09.415Z,980.7
2017-08-11T03:13:11.726Z,980.7
2017-08-11T03:14:14.076Z,980.7
2017-08-11T03:15:16.456Z,980.6
2017-08-11T03:16:19.218Z,980.7
2017-08-11T03:17:21.521Z,980.7
2017-08-11T03:18:24.092Z,980.7
2017-08-11T03:19:26.419Z,980.7
2017-08-11T03:20:28.888Z,980.8
2017-08-11T03:21:31.218Z,980.7
2017-08-11T03:22:33.566Z,980.7
2017-08-11T03:23:35.942Z,980.8
2017-08-11T03:24:38.317Z,980.7
2017-08-11T03:25:40.653Z,980.8
2017-08-11T03:26:43.005Z,980.7
2017-08-11T03:27:45.324Z,980.8
2017-08-11T03:28:47.719Z,980.8
2017-08-11T03:29:50.092Z,980.8
2017-08-11T03:30:52.460Z,980.8
2017-08-11T03:31:54.780Z,980.7
2017-08-11T03:32:57.151Z,980.8
2017-08-11T03:33:59.503Z,980.8
2017-08-11T03:35:01.826Z,980.8
2017-08-11T03:36:04.173Z,980.7
2017-08-11T03:37:06.473Z,980.8
2017-08-11T03:38:09.129Z,980.8
2017-08-11T03:39:11.460Z,980.9
2017-08-11T03:40:13.922Z,980.9
2017-08-11T03:41:16.284Z,980.8
2017-08-11T03:42:18.612Z,980.8
2017-08-11T03:43:20.948Z,980.9
2017-08-11T03:44:23.265Z,980.9
2017-08-11T03:45:25.623Z,980.9
2017-08-11T03:46:27.977Z,981
2017-08-11T03:47:30.431Z,980.9
2017-08-11T03:48:32.779Z,981
2017-08-11T03:49:35.114Z,980.9
2017-08-11T03:50:37.631Z,980.9
2017-08-11T03:51:39.974Z,980.9
2017-08-11T03:52:42.280Z,980.9
2017-08-11T03:53:44.636Z,980.3
2017-08-11T03:54:46.978Z,980.9
2017-08-11T03:55:49.322Z,980.9
2017-08-11T03:56:51.715Z,980.9
2017-08-11T03:57:54.030Z,980.9
2017-08-11T03:58:56.376Z,980.9
2017-08-11T03:59:58.768Z,980.9
2017-08-11T04:01:01.163Z,981
2017-08-11T04:02:03.681Z,981
2017-08-11T04:03:06.162Z,981
2017-08-11T04:04:08.584Z,981
2017-08-11T04:05:11.083Z,981
2017-08-11T04:06:13.453Z,981
2017-08-11T04:07:15.807Z,981
2017-08-11T04:08:18.175Z,981
2017-08-11T04:09:20.523Z,981
2017-08-11T04:10:22.872Z,980.9
2017-08-11T04:11:25.218Z,981
2017-08-11T04:12:27.615Z,981
2017-08-11T04:13:29.951Z,980.9
2017-08-11T04:14:32.382Z,980.9
2017-08-11T04:15:34.733Z,980.9
2017-08-11T04:16:37.196Z,980.9
2017-08-11T04:17:39.500Z,980.9
2017-08-11T04:18:41.831Z,980.9
2017-08-11T04:19:44.146Z,980.9
2017-08-11T04:20:46.543Z,980.9
2017-08-11T04:21:48.920Z,980.9
2017-08-11T04:22:51.273Z,980.9
2017-08-11T04:23:53.611Z,980.9
2017-08-11T04:24:55.937Z,980.9
2017-08-11T04:25:58.337Z,980.9
2017-08-11T04:27:00.726Z,980.9
2017-08-11T04:28:03.503Z,980.9
2017-08-11T04:29:05.790Z,980.9
2017-08-11T04:30:08.122Z,981
2017-08-11T04:31:10.449Z,980.9
2017-08-11T04:32:13.255Z,980.9
2017-08-11T04:33:15.668Z,980.9
2017-08-11T04:34:18.033Z,980.9
2017-08-11T04:35:20.387Z,980.9
2017-08-11T04:36:22.777Z,980.9
2017-08-11T04:37:25.153Z,980.9
2017-08-11T04:38:27.577Z,980.6
2017-08-11T04:39:29.979Z,980.6
2017-08-11T04:40:32.334Z,980.9
2017-08-11T04:41:34.653Z,980.9
2017-08-11T04:42:37.116Z,980.9
2017-08-11T04:43:39.427Z,980.9
2017-08-11T04:44:41.723Z,980.9
2017-08-11T04:45:44.105Z,980.8
2017-08-11T04:46:46.774Z,980.8
2017-08-11T04:47:49.462Z,980.8
2017-08-11T04:48:51.828Z,980.9
2017-08-11T04:49:57.041Z,980.9
2017-08-11T04:50:59.999Z,980.9
2017-08-11T04:52:05.744Z,981
2017-08-11T04:53:08.162Z,980.9
2017-08-11T04:54:10.504Z,980.9
2017-08-11T04:55:12.904Z,980.9
2017-08-11T04:56:15.838Z,980.6
2017-08-11T04:57:18.281Z,980.9
2017-08-11T04:58:22.005Z,980.9
2017-08-11T04:59:24.318Z,980.9
2017-08-11T05:00:26.719Z,980.9
2017-08-11T05:01:30.760Z,980.9
2017-08-11T05:02:33.150Z,980.9
2017-08-11T05:03:35.534Z,980.8
2017-08-11T05:04:37.902Z,980.9
2017-08-11T05:05:40.347Z,980.9
2017-08-11T05:06:42.696Z,980.8
2017-08-11T05:07:45.104Z,980.9
2017-08-11T05:08:48.205Z,980.8
2017-08-11T05:09:50.607Z,980.9
2017-08-11T05:10:52.970Z,980.8
2017-08-11T05:11:55.390Z,980.8
2017-08-11T05:12:57.797Z,980.9
2017-08-11T05:14:00.299Z,980.8
2017-08-11T05:15:02.696Z,980.8
2017-08-11T05:16:05.133Z,980.8
2017-08-11T05:17:07.541Z,980.8
2017-08-11T05:18:09.987Z,980.8
2017-08-11T05:19:12.377Z,980.8
2017-08-11T05:20:14.769Z,980.8
2017-08-11T05:21:17.190Z,980.7
2017-08-11T05:22:19.614Z,980.8
2017-08-11T05:23:22.044Z,980.8
2017-08-11T05:24:24.513Z,980.7
2017-08-11T05:25:26.917Z,980.7
2017-08-11T05:26:29.238Z,980.7
2017-08-11T05:27:32.633Z,980
2017-08-11T05:28:35.063Z,980.7
2017-08-11T05:29:37.443Z,980.7
2017-08-11T05:30:40.477Z,980.7
2017-08-11T05:31:42.831Z,980.3
2017-08-11T05:32:45.215Z,980.7
2017-08-11T05:33:47.650Z,980.7
2017-08-11T05:34:50.084Z,980.7
2017-08-11T05:35:52.485Z,980.7
2017-08-11T05:36:54.951Z,980.7
2017-08-11T05:37:57.330Z,980.7
2017-08-11T05:38:59.680Z,980.7
2017-08-11T05:40:02.066Z,980.7
2017-08-11T05:41:04.461Z,980.7
2017-08-11T05:42:06.866Z,980.7
2017-08-11T05:43:09.218Z,980.7
2017-08-11T05:44:11.589Z,980.7
2017-08-11T05:45:13.969Z,980.7
2017-08-11T05:46:16.377Z,980.7
2017-08-11T05:47:18.856Z,980.6
2017-08-11T05:48:22.435Z,980.7
2017-08-11T05:49:24.833Z,980.6
2017-08-11T05:50:28.461Z,980.6
2017-08-11T05:51:30.940Z,980.3
2017-08-11T05:52:33.585Z,980.6
2017-08-11T05:53:35.978Z,980.6
2017-08-11T05:54:38.665Z,980.5
2017-08-11T05:55:41.752Z,980.6
2017-08-11T05:56:44.625Z,980.6
2017-08-11T05:57:46.996Z,980.6
2017-08-11T05:58:50.410Z,980.5
2017-08-11T05:59:52.749Z,980.6
2017-08-11T06:00:55.067Z,980.5
2017-08-11T06:01:57.567Z,980.5
2017-08-11T06:03:00.006Z,980.5
2017-08-11T06:04:02.445Z,980.5
2017-08-11T06:05:04.899Z,980.5
2017-08-11T06:06:08.289Z,980.5
2017-08-11T06:07:10.797Z,980.5
2017-08-11T06:08:13.559Z,980.5
2017-08-11T06:09:15.952Z,980.5
2017-08-11T06:10:18.345Z,980.5
2017-08-11T06:11:20.953Z,980.5
2017-08-11T06:12:23.352Z,980.5
2017-08-11T06:13:25.720Z,980.6
2017-08-11T06:14:28.107Z,980.6
2017-08-11T06:15:30.527Z,980.6
2017-08-11T06:16:32.902Z,980.2
2017-08-11T06:17:35.227Z,980.6
2017-08-11T06:18:37.752Z,980.2
2017-08-11T06:19:40.084Z,979.8
2017-08-11T06:20:42.526Z,980.5
2017-08-11T06:21:45.128Z,980.5
2017-08-11T06:22:47.600Z,980.5
2017-08-11T06:23:49.977Z,980.5
2017-08-11T06:24:52.368Z,980.5
2017-08-11T06:25:54.827Z,980.1
2017-08-11T06:26:57.163Z,980.5
2017-08-11T06:27:59.600Z,980.5
2017-08-11T06:29:02.063Z,980.5
2017-08-11T06:30:04.451Z,980.5
2017-08-11T06:31:06.852Z,980.1
2017-08-11T06:32:09.316Z,980.5
2017-08-11T06:33:11.734Z,980.5
2017-08-11T06:34:14.139Z,980.5
2017-08-11T06:35:16.560Z,980.5
2017-08-11T06:36:20.625Z,980.5
2017-08-11T06:37:23.650Z,980.5
2017-08-11T06:38:26.030Z,980.5
2017-08-11T06:39:28.480Z,980.5
2017-08-11T06:40:30.908Z,980.5
2017-08-11T06:41:33.406Z,980.5
2017-08-11T06:42:35.797Z,980.4
2017-08-11T06:43:38.199Z,980.5
2017-08-11T06:44:40.639Z,980.5
2017-08-11T06:45:43.019Z,980.5
2017-08-11T06:46:45.381Z,979.7
2017-08-11T06:47:47.856Z,980.5
2017-08-11T06:48:50.232Z,980.5
2017-08-11T06:49:52.610Z,980.4
2017-08-11T06:50:54.983Z,980.5
2017-08-11T06:51:57.507Z,980.4
2017-08-11T06:52:59.901Z,980.5
2017-08-11T06:54:02.327Z,980.5
2017-08-11T06:55:05.314Z,980.5
2017-08-11T06:56:08.366Z,980.5
2017-08-11T06:57:10.774Z,980.4
2017-08-11T06:58:13.231Z,980.5
2017-08-11T06:59:15.629Z,980.5
2017-08-11T07:00:18.089Z,980.4
2017-08-11T07:01:21.592Z,980.4
2017-08-11T07:02:25.009Z,980
2017-08-11T07:03:27.473Z,980.4
2017-08-11T07:04:29.955Z,980.4
2017-08-11T07:05:32.339Z,980.4
2017-08-11T07:06:34.834Z,980.3
2017-08-11T07:07:37.263Z,980.3
2017-08-11T07:08:39.704Z,980.3
2017-08-11T07:09:42.157Z,980.2
2017-08-11T07:10:46.083Z,980.2
2017-08-11T07:11:48.565Z,980.2
2017-08-11T07:12:50.957Z,980.2
2017-08-11T07:13:53.424Z,980.2
2017-08-11T07:14:55.813Z,979.8
2017-08-11T07:15:58.187Z,980.1
2017-08-11T07:17:00.660Z,980.1
2017-08-11T07:18:03.177Z,980.1
2017-08-11T07:19:05.644Z,980.1
2017-08-11T07:20:08.133Z,980.1
2017-08-11T07:21:10.506Z,979.5
2017-08-11T07:22:12.994Z,980.1
2017-08-11T07:23:15.464Z,980.1
2017-08-11T07:24:18.150Z,980.1
2017-08-11T07:25:20.490Z,980.1
2017-08-11T07:26:22.866Z,980.1
2017-08-11T07:27:25.339Z,980.1
2017-08-11T07:28:27.810Z,980.1
2017-08-11T07:29:30.204Z,980.1
2017-08-11T07:30:32.635Z,980.1
2017-08-11T07:31:35.009Z,980.1
2017-08-11T07:32:37.592Z,980.1
2017-08-11T07:33:39.972Z,980.1
2017-08-11T07:34:42.750Z,980.1
2017-08-11T07:35:46.657Z,980.1
2017-08-11T07:36:50.799Z,979.8
2017-08-11T07:37:53.218Z,980.1
2017-08-11T07:38:55.711Z,980.2
2017-08-11T07:39:58.328Z,980.1
2017-08-11T07:41:00.849Z,979.8
2017-08-11T07:42:03.236Z,980.2
2017-08-11T07:43:05.779Z,980.2
2017-08-11T07:44:08.328Z,980.2
2017-08-11T07:45:10.739Z,980.3
2017-08-11T07:46:13.170Z,980.3
2017-08-11T07:47:15.731Z,980.3
2017-08-11T07:48:18.313Z,979.9
2017-08-11T07:49:21.851Z,980.3
2017-08-11T07:50:24.313Z,980.3
2017-08-11T07:51:26.643Z,980.3
2017-08-11T07:52:29.108Z,979.9
2017-08-11T07:53:31.716Z,980.3
2017-08-11T07:54:34.241Z,980.2
2017-08-11T07:55:37.103Z,980.2
2017-08-11T07:56:39.611Z,980.2
2017-08-11T07:57:42.094Z,980.2
2017-08-11T07:58:44.542Z,979.4
2017-08-11T07:59:47.718Z,980.1
2017-08-11T08:00:50.318Z,980.1
2017-08-11T08:01:52.716Z,980.1
2017-08-11T08:02:55.278Z,980.1
2017-08-11T08:03:57.792Z,980.1
2017-08-11T08:05:00.397Z,980.2
2017-08-11T08:06:02.764Z,980.2
2017-08-11T08:07:05.230Z,980.2
2017-08-11T08:08:07.671Z,980.2
2017-08-11T08:09:10.248Z,980.2
2017-08-11T08:10:12.741Z,980.3
2017-08-11T08:11:15.249Z,980.3
2017-08-11T08:12:20.352Z,980
2017-08-11T08:13:23.155Z,980.3
2017-08-11T08:14:25.571Z,980.4
2017-08-11T08:15:28.069Z,980.3
2017-08-11T08:16:30.473Z,980.4
2017-08-11T08:17:33.205Z,980.4
2017-08-11T08:18:35.675Z,980.4
2017-08-11T08:19:38.300Z,980.4
2017-08-11T08:20:40.757Z,980.4
2017-08-11T08:21:43.437Z,980.5
2017-08-11T08:22:45.861Z,980.5
2017-08-11T08:23:48.291Z,980.5
2017-08-11T08:24:51.097Z,980.5
2017-08-11T08:25:53.671Z,980.5
2017-08-11T08:26:56.176Z,980
2017-08-11T08:27:58.755Z,980.5
2017-08-11T08:29:01.186Z,980.5
2017-08-11T08:30:03.616Z,980.5
2017-08-11T08:31:06.355Z,980.4
2017-08-11T08:32:08.900Z,980.5
2017-08-11T08:33:11.396Z,980.5
2017-08-11T08:34:13.848Z,980.5
2017-08-11T08:35:21.517Z,980.5
2017-08-11T08:36:24.154Z,980.5
2017-08-11T08:37:26.532Z,980.5
2017-08-11T08:38:29.116Z,980.4
2017-08-11T08:39:31.614Z,980.5
2017-08-11T08:40:34.081Z,980.5
2017-08-11T08:41:36.502Z,980.5
2017-08-11T08:42:39.132Z,980.5
2017-08-11T08:43:44.804Z,980.5
2017-08-11T08:44:47.363Z,980.6
2017-08-11T08:45:49.844Z,980.5
2017-08-11T08:46:52.524Z,980.5
2017-08-11T08:47:55.046Z,980.5
2017-08-11T08:48:57.516Z,980.5
2017-08-11T08:49:59.975Z,980.5
2017-08-11T08:51:02.550Z,980.5
2017-08-11T08:52:05.026Z,980.6
2017-08-11T08:53:08.109Z,980.6
2017-08-11T08:54:10.640Z,980.6
2017-08-11T08:55:13.070Z,980.6
2017-08-11T08:56:19.647Z,980.7
2017-08-11T08:57:29.675Z,980.7
2017-08-11T08:58:32.327Z,980.7
2017-08-11T08:59:34.818Z,980.7
2017-08-11T09:00:37.321Z,980.8
2017-08-11T09:01:39.736Z,980.7
2017-08-11T09:02:42.129Z,980.8
2017-08-11T09:03:44.709Z,980.7
2017-08-11T09:04:47.165Z,980.3
2017-08-11T09:05:49.750Z,980.7
2017-08-11T09:06:52.228Z,980.7
2017-08-11T09:07:54.664Z,980.6
2017-08-11T09:08:57.131Z,980.7
2017-08-11T09:09:59.643Z,980.7
2017-08-11T09:11:02.158Z,980.7
2017-08-11T09:12:04.692Z,980.7
2017-08-11T09:13:07.087Z,980
2017-08-11T09:14:10.274Z,980.8
2017-08-11T09:15:12.854Z,980.8
2017-08-11T09:16:15.333Z,980.8
2017-08-11T09:17:17.918Z,980.8
2017-08-11T09:18:20.620Z,980.9
2017-08-11T09:19:23.112Z,980.9
2017-08-11T09:20:25.579Z,980.9
2017-08-11T09:21:28.041Z,981
2017-08-11T09:22:30.565Z,980.4
2017-08-11T09:23:33.033Z,981
2017-08-11T09:24:35.545Z,981
2017-08-11T09:25:38.141Z,981.1
2017-08-11T09:26:40.768Z,981
2017-08-11T09:27:43.281Z,981.1
2017-08-11T09:28:45.773Z,981
2017-08-11T09:29:48.358Z,981
2017-08-11T09:30:50.796Z,981
2017-08-11T09:31:53.151Z,981
2017-08-11T09:32:55.649Z,981
2017-08-11T09:33:58.253Z,980.8
2017-08-11T09:35:00.752Z,980.4
2017-08-11T09:36:03.269Z,980.8
2017-08-11T09:37:05.660Z,980.7
2017-08-11T09:38:08.107Z,980.7
2017-08-11T09:39:11.232Z,980.6
2017-08-11T09:40:13.925Z,980.7
2017-08-11T09:41:17.189Z,980.6
2017-08-11T09:42:19.709Z,980.6
2017-08-11T09:43:22.167Z,980.6
2017-08-11T09:44:24.667Z,980.5
2017-08-11T09:45:27.175Z,980.6
2017-08-11T09:46:29.732Z,980.6
2017-08-11T09:47:32.204Z,980.6
2017-08-11T09:48:34.817Z,980
2017-08-11T09:49:37.244Z,980.6
2017-08-11T09:50:40.405Z,980.6
2017-08-11T09:51:43.046Z,980.6
2017-08-11T09:52:45.519Z,980.7
2017-08-11T09:53:48.040Z,980.6
2017-08-11T09:54:50.470Z,980.2
2017-08-11T09:55:52.904Z,980.2
2017-08-11T09:56:55.385Z,980.7
2017-08-11T09:58:01.926Z,980.7
2017-08-11T09:59:04.450Z,980.7
2017-08-11T10:00:07.560Z,980.7
2017-08-11T10:01:10.349Z,980.7
2017-08-11T10:02:12.753Z,980.7
2017-08-11T10:03:15.275Z,980.8
2017-08-11T10:04:18.011Z,980.5
2017-08-11T10:05:20.481Z,980.8
2017-08-11T10:06:23.471Z,980.8
2017-08-11T10:07:26.485Z,980.8
2017-08-11T10:08:29.322Z,980.8
2017-08-11T10:09:31.828Z,980.8
2017-08-11T10:10:35.559Z,980.8
2017-08-11T10:11:39.423Z,980.8
2017-08-11T10:12:44.904Z,980.9
2017-08-11T10:13:47.431Z,980.9
2017-08-11T10:14:50.992Z,980.8
2017-08-11T10:15:54.496Z,980.9
2017-08-11T10:16:57.217Z,980.9
2017-08-11T10:17:59.739Z,980.8
2017-08-11T10:19:02.209Z,980.5
2017-08-11T10:20:04.586Z,980.8
2017-08-11T10:21:06.988Z,980.8
2017-08-11T10:22:09.603Z,980.8
2017-08-11T10:23:12.060Z,980.8
2017-08-11T10:24:14.637Z,980.7
2017-08-11T10:25:17.018Z,980.7
2017-08-11T10:26:20.274Z,980.3
2017-08-11T10:27:23.449Z,980.5
2017-08-11T10:28:26.468Z,980.5
2017-08-11T10:29:28.957Z,980.6
2017-08-11T10:30:31.368Z,980.5
2017-08-11T10:31:33.852Z,980.5
2017-08-11T10:32:37.066Z,980.5
2017-08-11T10:33:40.274Z,980.5
2017-08-11T10:34:42.777Z,980.4
2017-08-11T10:35:45.195Z,980.4
2017-08-11T10:36:47.553Z,979.9
2017-08-11T10:37:50.014Z,980.4
2017-08-11T10:38:53.041Z,980.4
2017-08-11T10:39:55.440Z,980.4
2017-08-11T10:40:57.854Z,980.4
2017-08-11T10:42:00.918Z,980.4
2017-08-11T10:43:04.184Z,980.4
2017-08-11T10:44:06.654Z,980.4
2017-08-11T10:45:09.160Z,980.4
2017-08-11T10:46:12.461Z,980.4
2017-08-11T10:47:14.919Z,980.4
2017-08-11T10:48:17.585Z,980.3
2017-08-11T10:49:20.052Z,980.3
2017-08-11T10:50:22.459Z,980.3
2017-08-11T10:51:25.286Z,980.2
2017-08-11T10:52:27.757Z,980.1
2017-08-11T10:53:30.230Z,980.1
2017-08-11T10:54:32.681Z,980
2017-08-11T10:55:35.175Z,979.3
2017-08-11T10:56:37.565Z,980
2017-08-11T10:57:40.770Z,980
2017-08-11T10:58:43.544Z,980
2017-08-11T10:59:46.139Z,980
2017-08-11T11:00:48.700Z,980.1
2017-08-11T11:01:51.241Z,980
2017-08-11T11:02:54.065Z,980
2017-08-11T11:03:57.345Z,980.1
2017-08-11T11:04:59.859Z,980
2017-08-11T11:06:02.748Z,980
2017-08-11T11:07:05.455Z,980
2017-08-11T11:08:07.816Z,980
2017-08-11T11:09:10.406Z,980.1
2017-08-11T11:10:12.853Z,980.1
2017-08-11T11:11:15.802Z,979.7
2017-08-11T11:12:18.303Z,980
2017-08-11T11:13:20.715Z,979.7
2017-08-11T11:14:23.252Z,980
2017-08-11T11:15:26.251Z,980
2017-08-11T11:16:28.904Z,979.7
2017-08-11T11:17:31.328Z,980.1
2017-08-11T11:18:34.418Z,980.1
2017-08-11T11:19:36.836Z,980.1
2017-08-11T11:20:39.382Z,980.1
2017-08-11T11:21:41.760Z,980.1
2017-08-11T11:22:44.160Z,980.1
2017-08-11T11:23:46.621Z,980.1
2017-08-11T11:24:57.975Z,980.2
2017-08-11T11:26:01.143Z,980.2
2017-08-11T11:27:03.927Z,980.2
2017-08-11T11:28:06.687Z,980.2
2017-08-11T11:30:20.413Z,980.2
2017-08-11T11:31:23.493Z,980.2
2017-08-11T11:32:26.326Z,979.8
2017-08-11T11:33:32.843Z,980.1
2017-08-11T11:34:36.251Z,980
2017-08-11T11:35:38.837Z,980.1
2017-08-11T11:36:41.663Z,979.3
2017-08-11T11:37:44.264Z,980
2017-08-11T11:38:49.242Z,980
2017-08-11T11:39:53.753Z,980
2017-08-11T11:40:56.605Z,980
2017-08-11T11:42:00.078Z,980
2017-08-11T11:43:03.445Z,980
2017-08-11T11:44:06.047Z,980
2017-08-11T11:45:08.631Z,980
2017-08-11T11:46:11.117Z,980
2017-08-11T11:47:13.861Z,980
2017-08-11T11:48:16.400Z,979.9
2017-08-11T11:49:19.050Z,979.8
2017-08-11T11:50:22.279Z,979.8
2017-08-11T11:51:25.465Z,979.7
2017-08-11T11:52:28.056Z,979.7
2017-08-11T11:53:30.588Z,979.8
2017-08-11T11:54:33.196Z,979.7
2017-08-11T11:55:35.794Z,979.8
2017-08-11T11:56:38.356Z,979.4
2017-08-11T11:57:40.798Z,979.8
2017-08-11T11:59:54.046Z,979.5
2017-08-11T12:00:56.553Z,979.9
2017-08-11T12:01:59.107Z,979.7
2017-08-11T12:03:01.487Z,980
2017-08-11T12:04:03.860Z,980
2017-08-11T12:05:06.717Z,979.7
2017-08-11T12:06:09.727Z,980
2017-08-11T12:07:12.263Z,980.1
2017-08-11T12:08:17.868Z,980.2
2017-08-11T12:09:20.375Z,980.2
2017-08-11T12:10:22.884Z,980.3
2017-08-11T12:11:25.436Z,980
2017-08-11T12:12:27.872Z,980
2017-08-11T12:13:30.430Z,980.4
2017-08-11T12:14:32.943Z,980.1
2017-08-11T12:15:35.460Z,980.4
2017-08-11T12:16:37.919Z,980.4
2017-08-11T12:17:40.748Z,980.4
2017-08-11T12:18:43.367Z,980.4
2017-08-11T12:19:45.930Z,980.5
2017-08-11T12:20:48.599Z,980.5
2017-08-11T12:21:51.244Z,980.4
2017-08-11T12:22:54.002Z,980.5
2017-08-11T12:23:56.536Z,980.5
2017-08-11T12:24:59.266Z,980.5
2017-08-11T12:26:01.779Z,980.5
2017-08-11T12:27:04.300Z,980.5
2017-08-11T12:28:07.467Z,980
2017-08-11T12:29:10.174Z,980.5
2017-08-11T12:30:12.816Z,980.5
2017-08-11T12:31:16.231Z,980.5
2017-08-11T12:32:18.928Z,980.5
2017-08-11T12:33:21.504Z,980.5
2017-08-11T12:34:23.943Z,980.4
2017-08-11T12:35:26.442Z,980.5
2017-08-11T12:36:29.102Z,980.6
2017-08-11T12:37:32.338Z,980.3
2017-08-11T12:38:34.870Z,980.6
2017-08-11T12:39:38.067Z,980.5
2017-08-11T12:40:40.462Z,980.6
2017-08-11T12:41:42.890Z,980.5
2017-08-11T12:42:47.037Z,980.5
2017-08-11T12:43:49.611Z,980.6
2017-08-11T12:44:53.106Z,980.5
2017-08-11T12:45:55.604Z,980.1
2017-08-11T12:46:58.704Z,980.5
2017-08-11T12:48:01.248Z,980.5
2017-08-11T12:49:03.871Z,980.5
2017-08-11T12:50:06.934Z,980.5
2017-08-11T12:51:09.555Z,980.5
2017-08-11T12:52:12.296Z,980.4
2017-08-11T12:53:15.893Z,980.5
2017-08-11T12:54:18.551Z,980.5
2017-08-11T12:55:21.076Z,980.4
2017-08-11T12:56:26.202Z,980.4
2017-08-11T12:57:28.817Z,979.9
2017-08-11T12:58:31.341Z,980.4
2017-08-11T12:59:33.918Z,980.4
2017-08-11T13:00:36.498Z,980.4
2017-08-11T13:01:39.622Z,980
2017-08-11T13:02:43.417Z,980.4
2017-08-11T13:03:46.950Z,980.3
2017-08-11T13:04:51.290Z,980.1
2017-08-11T13:05:54.451Z,980.3
2017-08-11T13:06:57.848Z,980.2
2017-08-11T13:08:00.684Z,980.2
2017-08-11T13:09:03.211Z,980.1
2017-08-11T13:10:05.724Z,980.1
2017-08-11T13:11:08.454Z,980
2017-08-11T13:12:11.064Z,980
2017-08-11T13:13:18.778Z,980
2017-08-11T13:14:21.448Z,979.7
2017-08-11T13:15:24.785Z,980.1
2017-08-11T13:16:28.044Z,980
2017-08-11T13:17:30.678Z,980
2017-08-11T13:18:33.217Z,980
2017-08-11T13:19:36.324Z,979.9
2017-08-11T13:20:38.942Z,980
2017-08-11T13:21:41.516Z,979.3
2017-08-11T13:22:44.328Z,979.3
2017-08-11T13:23:46.915Z,979.9
2017-08-11T13:24:49.639Z,979.9
2017-08-11T13:25:52.193Z,980
2017-08-11T13:26:55.361Z,979.5
2017-08-11T13:27:57.973Z,979.9
2017-08-11T13:29:00.564Z,979.9
2017-08-11T13:30:03.064Z,979.8
2017-08-11T13:31:07.468Z,979.8
2017-08-11T13:32:10.502Z,979.8
2017-08-11T13:33:13.044Z,979.7
2017-08-11T13:34:15.696Z,979.8